KAKO/AKO METAR and TAF weather

Enter ICAO airport designator
Station Type Date Time Source
KAKO METAR 2018/10/21 04:53 UTC NOAA

KAKO 210453Z AUTO 19010KT 10SM CLR 09/M01 A3027 RMK AO2 SLP230 T00891011


Station Type Date Time Source
KAKO Decoded METAR 2018/10/21 04:53 UTC NOAA

COLORADO PLAINS REGIONAL, CO, United States (KAKO) 40-10N 103-13W 1421M
Oct 21, 2018 - 12:53 AM EDT / 2018.10.21 0453 UTC
Wind: from the S (190 degrees) at 12 MPH (10 KT):0
Visibility: 10 mile(s):0
Sky conditions: clear
Temperature: 48.0 F (8.9 C)
Dew Point: 30.0 F (-1.1 C)
Relative Humidity: 49%
Pressure (altimeter): 30.27 in. Hg (1025 hPa)
ob: KAKO 210453Z AUTO 19010KT 10SM CLR 09/M01 A3027 RMK AO2 SLP230 T00891011
cycle: 5

Station Type Date Time Source
KAKO TAF UTC NOAA

Error!


Example: see airport list